Furlong, PA (18925)

12:49 PM EST on January 27, 2015 (GMT -0500)
KPAFURLO4 | Change Station
CLOSE
Current Station
Personal Weather Station
Location: Furlong, PA
Elevation: 308 ft
Nearby Weather Stations

Elev 308 ft 40.28 °N, 75.07 °W | Updated 1 second ago

Overcast
Overcast
28.5 °F
Feels Like 20 °F
N
8.3
Wind Variable Wind from NE
Gusts 10.7 mph

Today
High -- | Low -- °F
--% Chance of Precip.
Yesterday
High -- | Low -- °F
Precip. -- in
7:13 AM 5:12 PM
First Quarter, 56% visible
Pressure 29.70 in
Visibility 9.0 miles
Clouds Overcast 3000 ft
Windchill 20 °F
Dew Point 16 °F
Humidity 58%
Rainfall 0.00 in
Snow Depth Not available.
UV 1 out of 12
Pollen .10 out of 12
Air Quality Not available.
Flu Activity Not available.
SPECI KDYL 271722Z AUTO 33014G24KT 9SM UP OVC030 M04/M11 A2970 RMK AO2 UPB14SNE12 P0000 T10391111

More Conditions Fewer Conditions

Pressure 29.70 in
Visibility 9.0 miles
Clouds Overcast 3000 ft
Windchill 20 °F
Dew Point 16 °F
Humidity 58%
Rainfall 0.00 in
Snow Depth Not available.
UV 1 out of 12
Pollen .10 out of 12
Air Quality Not available.
Flu Activity Not available.
SPECI KDYL 271722Z AUTO 33014G24KT 9SM UP OVC030 M04/M11 A2970 RMK AO2 UPB14SNE12 P0000 T10391111

More Conditions Fewer Conditions

10-Day Weather Forecast

Almanac

Astronomy

Jan. 27, 2015 Rise Set
Actual Time
Civil Twilight
Nautical Twilight
Astronomical Twilight
Moon
Length of Visible Light
Length of Day
Tomorrow will be .
, % of the Moon is Illuminated

Today's Extremes

State Highs State Lows

Community

WunderPhotos

Upload Photos

1,790,741 photos uploaded!

WunderBlogs® & News

Nearby

Air Quality

  Air Quality AQ Index Pollutant
Not available.

Snow Depth

Station Depth Elevation

Earthquake Activity

City Distance Mag. Time & Date
Minimum magnitude displayed is 2.5.

Coastal Water Temperatures

Place Temperature

Nearby Weather Stations